Kezdőlap
METAR-TAF:

METAR-TAF

Repülőterek :

Kimberley, Dél-afrikai Köztársaság

földrajzi szélesség: 28-48S, földrajzi hosszúság: 024-46E, magasság: 1198 m

Jelenlegi meteorológiai megfigyelések

A jelentés 23 perccel ezelõtt készült, 21:00 UTC
Dél-délnyugati szél 5 kt
Hőmérséklet 6°C
Páratartalom 52%
Légköri nyomás 1023 hPa

METAR: FAKM 192100Z AUTO 21005KT //// // ////// 06/M03 Q1023

Idő: 23:23 (21:23 UTC)

Előrejelzés

A jelentés 12 órával és 23 perccel ezelõtt készült, 09:00 UTC
Az előrejelzés 19-én 10 óra UTC és 19-én 18 óra UTC között érvényes
Különbözõ irányokból fújó szél 3 kt
Látótávolság 10 km, vagy több
felhőtlen 1500 m magasságban, és nincs gomolyfelhõ

TAF: FAKM 190900Z 1910/1918 VRB03KT CAVOK TX19/1912Z TN11/1918Z

Meteorológiai megfigyelések és előrejelzések több, mint 4000 repülőtéren (METAR és TAF jelentéseket).

A térképen piros és sárga pontok jelzik az elérhető meteorológiai állomásokat.

Mozgassa az egeret a pont fölött, hogy megjelenjen az állomás neve.

Azután kattintson az időjárási megfigyelések és előrejelzések megtekintéséhez.

A térkép megváltoztatása: kattintson a fekete keresztel jelölt zöld gombra ráközelítéshez, a vonallal jelölt zöld gombra távolításhoz, vagy a zöld nyilakra a szomszédos térképek eléréséhez.


METAR-TAF: